Bass Harbor, Maine
Current Conditions -  °F | °C
As of 6:55 PM on Saturday 22 Nov 2014 (Local Time) from KBHB Reporting Station
Clear Clear  
Wind Chill: 30°   Ceiling: Unl
Heat Index: 37°   Visibility: 10mi
Dew Point: 19°   Wind: 12mph
Humidity: 48%   Direction: 220°SW
Pressure: 29.95"   Gusts: NA
Location:  44.24°N, 68.34°W
Report Text: KBHB 222355Z AUTO 22010KT 10SM CLR 03/M07 A2995 RMK AO1 10030 20020 400301080 57020
Loading
Personal Weather Stations






























Interactive Weather Map New forecast layout! Learn more

10-Day Weather Forecast

Advertisements
Track Severe Weather on mobile